Terminal Aerodrome Forecast
Issued by NWS Blacksburg, VA

Home | Current Version | Previous Version | Text Only | Print | Product List | Glossary On
Versions: 1 2 3 4 5 6 7 8 9 10 11 12 13 14 15 16 17 18 19 20 21 22 23 24 25 26
000
FTUS41 KRNK 251125
TAFROA
TAF
KROA 251125Z 2512/2612 13004KT P6SM OVC016
      TEMPO 2512/2514 5SM -DZ BR
     FM251600 10006KT P6SM OVC025
     FM252100 11006KT P6SM BKN035
     FM260300 11004KT P6SM OVC015=

USA.gov is the U.S. government's official web portal to all federal, state and local government web resources and services.